Etusivu
METAR-TAF:

METAR-TAF

Lentoasemat :

Salala, Oman

Leveyspiiri: 17-02N, Pituuspiiri: 054-05E, korkeus merenpinnasta: 20 m

Tämänhetkinen sää

Tämä raportti tehtiin 26 minuuttia sitten, kello 14.50 UTC
Tuuli 9 kn etelästä
Lämpötila 25°C
Kosteus 69%
Ilmanpaine 1012 hPa
Näkyvyys 10 km tai enemmän
Hajanaisia pilviä 2500 ft:n korkeudessa

METAR: OOSA 201450Z 19009KT 9999 SCT025 25/19 Q1012 NOSIG

Aika: 19:16 (15:16 UTC)

Sääennuste

Tämä raportti tehtiin 3 tuntia ja 36 minuuttia sitten, kello 11.40 UTC
Ennuste voimassa 20. päivästä klo 12 UTC - 21. päivään klo 18 UTC
Tuuli 12 kn etelästä
Näkyvyys 10 km tai enemmän
Muutamia pilviä 2500 ft:n korkeudessa
Tulossa
20. päivästä klo 21 UTC - 20. päivään klo 23 UTC
Tuuli 3 kn eri suunnista
Hajonneita pilviä 2500 ft:n korkeudessa
Tulossa
21. päivästä klo 05 UTC - 21. päivään klo 07 UTC
Tuuli 10 kn etelästä

TAF: OOSA 201140Z 2012/2118 17012KT 9999 FEW025 BECMG 2021/2023 VRB03KT BKN025 BECMG 2105/2107 18010KT

Säähavainnot ja -ennusteet yli 4000 lentoasemalta (METAR- ja TAF-raportit).

Käytössä olevat sääasemat on merkitty karttaan keltaisilla ja punaisilla pisteillä.

Aseta hiiri pisteen päälle nähdäksesi sääaseman nimen.

Klikkaa sitten nähdäksesi säähavainnot ja -ennusteet.

Kartan vaihtaminen: klikkaa mustalla rastilla varustettuja vihreitä pisteitä, niin voit zoomata sisään; viivalla varustettua vihreää pistettä, niin voit zoomata ulos tai vihreitä nuolia, niin pääset viereisille kartoille.


METAR-TAF: